Surface/Precipitation History
01/17/2019 02:53  to  1/18/2019 02:53
Change End Date:
Date/Time
(MST)
Sf
Temp Chem Water Layer Surface Precipitation
Sfc Pvt Sub Frz Factor Pct Dpth DpthThk IcePct Cond Salin FI Type Intens Accum Rate
01/18/2019 02:46 Ice Warning 27.5F - - 32F 95 1% - - 95% 2 mhos 205 - Yes - - -
01/18/2019 02:39 Ice Warning 27.1F - - 32F 95 1% - - 96% 2 mhos 185 - Yes - - -
01/18/2019 02:31 Ice Warning 27.3F - - 32F 95 1% - - 96% 2 mhos 207 - Yes - - -
01/18/2019 02:29 Ice Warning 27.3F - - 32F 95 1% - - 95% 2 mhos 225 - Yes - - -
01/18/2019 02:19 Ice Warning 27.3F - - 32F 95 1% - - 96% 2 mhos 173 - Yes - - -
01/18/2019 02:16 Ice Warning 27.3F - - 32F 95 1% - - 95% 2 mhos 219 - Yes - - -
01/18/2019 02:09 Ice Warning 27.5F - - 32F 95 1% - - 95% 2 mhos 213 - Yes - - -
01/18/2019 02:01 Ice Warning 27.5F - - 32F 95 1% - - 95% 2 mhos 208 - Yes - - -
01/18/2019 01:59 Ice Warning 27.5F - - 32F 95 1% - - 96% 2 mhos 181 - Yes - - -
01/18/2019 01:49 Ice Warning 28.0F - - 32F 95 1% - - 96% 2 mhos 182 - Yes - - -
01/18/2019 01:46 Ice Warning 27.9F - - 32F 95 1% - - 95% 2 mhos 191 - Yes - - -
01/18/2019 01:39 Ice Warning 28.0F - - 32F 95 1% - - 95% 2 mhos 190 - Yes - - -
01/18/2019 01:31 Ice Warning 28.2F - - 32F 95 1% - - 95% 2 mhos 183 - Yes - - -
01/18/2019 01:29 Ice Warning 28.2F - - 32F 95 1% - - 95% 2 mhos 194 - Yes - - -
01/18/2019 01:19 Ice Warning 28.4F - - 32F 95 1% - - 95% 2 mhos 182 - Yes - - -
Date/Time
(MST)
Sf
Temp Chem Water Layer Surface Precipitation
Sfc Pvt Sub Frz Factor Pct Dpth DpthThk IcePct Cond Salin FI Type Intens Accum Rate
01/18/2019 01:16 Ice Warning 28.4F - - 32F 95 1% - - 94% 2 mhos 197 - Yes - - -
01/18/2019 01:09 Ice Warning 28.4F - - 32F 95 1% - - 95% 2 mhos 188 - Yes - - -
01/18/2019 01:01 Ice Warning 28.4F - - 32F 95 1% - - 95% 2 mhos 180 - Yes - - -
01/18/2019 00:58 Ice Warning 28.6F - - 32F 95 1% - - 95% 2 mhos 185 - Yes - - -
01/18/2019 00:48 Ice Warning 28.6F - - 32F 95 1% - - 94% 2 mhos 189 - Yes - - -
01/18/2019 00:46 Ice Warning 28.6F - - 32F 95 1% - - 94% 2 mhos 192 - Yes - - -
01/18/2019 00:38 Ice Warning 28.8F - - 32F 95 1% - - 94% 2 mhos 203 - Yes - - -
01/18/2019 00:31 Ice Warning 28.9F - - 32F 95 1% - - 94% 2 mhos 198 - Yes - - -
01/18/2019 00:28 Ice Warning 28.9F - - 32F 95 1% - - 94% 2 mhos 194 - Yes - - -
01/18/2019 00:18 Ice Warning 28.8F - - 32F 95 1% - - 94% 2 mhos 187 - Yes - - -
01/18/2019 00:16 Ice Warning 28.8F - - 32F 95 1% - - 94% 2 mhos 192 - Yes - - -
01/18/2019 00:08 Ice Warning 28.9F - - 32F 95 1% - - 96% 1 mhos 135 - Yes - - -
01/18/2019 00:01 Ice Warning 28.9F - - 32F 95 1% - - 94% 2 mhos 194 - Yes - - -
01/17/2019 23:58 Ice Warning 28.8F - - 32F 95 1% - - 94% 2 mhos 191 - Yes - - -
01/17/2019 23:48 Ice Warning 28.9F - - 32F 95 1% - - 94% 2 mhos 190 - Yes - - -
Date/Time
(MST)
Sf
Temp Chem Water Layer Surface Precipitation
Sfc Pvt Sub Frz Factor Pct Dpth DpthThk IcePct Cond Salin FI Type Intens Accum Rate
01/17/2019 23:46 Ice Warning 29.1F - - 32F 95 1% - - 93% 2 mhos 196 - Yes - - -
01/17/2019 23:38 Ice Warning 29.1F - - 32F 95 1% - - 94% 2 mhos 183 - Yes - - -
01/17/2019 23:31 Ice Warning 28.9F - - 32F 95 1% - - 95% 1 mhos 158 - Yes - - -
01/17/2019 23:28 Ice Warning 28.9F - - 32F 95 1% - - 95% 1 mhos 152 - Yes - - -
01/17/2019 23:18 Ice Warning 28.9F - - 32F 95 1% - - 95% 1 mhos 146 - Yes - - -
01/17/2019 23:16 Ice Warning 28.9F - - 32F 95 1% - - 95% 1 mhos 145 - Yes - - -
01/17/2019 23:08 Ice Warning 28.9F - - 32F 95 1% - - 96% 1 mhos 135 - Yes - - -
01/17/2019 23:01 Ice Warning 28.8F - - 32F 95 1% - - 95% 1 mhos 147 - Yes - - -
01/17/2019 22:58 Ice Warning 28.9F - - 32F 95 1% - - 95% 1 mhos 140 - Yes - - -
01/17/2019 22:48 Ice Warning 28.9F - - 32F 95 1% - - 95% 1 mhos 142 - Yes - - -
01/17/2019 22:46 Ice Warning 28.9F - - 32F 95 1% - - 96% 1 mhos 134 - Yes - - -
01/17/2019 22:38 Ice Warning 28.9F - - 32F 95 1% - - 95% 1 mhos 137 - Yes - - -
01/17/2019 22:31 Ice Warning 29.1F - - 32F 95 0% - - 96% 1 mhos 113 - Yes - - -
01/17/2019 22:28 Ice Warning 29.1F - - 32F 95 0% - - 96% 1 mhos 125 - Yes - - -
01/17/2019 22:18 Ice Warning 29.1F - - 32F 95 0% - - 96% 1 mhos 121 - Yes - - -
Date/Time
(MST)
Sf
Temp Chem Water Layer Surface Precipitation
Sfc Pvt Sub Frz Factor Pct Dpth DpthThk IcePct Cond Salin FI Type Intens Accum Rate
01/17/2019 22:16 Ice Warning 28.9F - - 32F 95 0% - - 96% 1 mhos 118 - Yes - - -
01/17/2019 22:08 Ice Warning 28.9F - - 32F 95 0% - - 96% 1 mhos 113 - Yes - - -
01/17/2019 22:01 Ice Warning 28.9F - - 32F 95 0% - - 97% 1 mhos 92 - Yes - - -
01/17/2019 21:58 Ice Warning 28.9F - - 32F 95 0% - - 97% 1 mhos 105 - Yes - - -
01/17/2019 21:48 Ice Warning 28.9F - - 32F 95 0% - - 97% 1 mhos 95 - Yes - - -
01/17/2019 21:46 Ice Warning 28.9F - - 32F 95 0% - - 97% 1 mhos 96 - Yes - - -
01/17/2019 21:38 Ice Warning 28.9F - - 32F 95 0% - - 97% 1 mhos 91 - Yes - - -
01/17/2019 21:31 Ice Warning 29.1F - - 32F 95 0% - - 97% 1 mhos 89 - Yes - - -
01/17/2019 21:28 Ice Warning 28.9F - - 32F 95 0% - - 97% 1 mhos 85 - Yes - - -
01/17/2019 21:18 Ice Warning 28.9F - - 32F 95 0% - - 97% 1 mhos 76 - Yes - - -
01/17/2019 21:16 Ice Warning 28.9F - - 32F 95 0% - - 98% 1 mhos 75 - Yes - - -
01/17/2019 21:08 Ice Warning 29.1F - - 32F 95 0% - - 98% 1 mhos 73 - Yes - - -
01/17/2019 21:01 Ice Warning 28.9F - - 32F 95 0% - - 98% 1 mhos 70 - Yes - - -
01/17/2019 20:57 Ice Warning 29.1F - - 32F 95 0% - - 98% 1 mhos 73 - Yes - - -
01/17/2019 20:47 Ice Warning 29.1F - - 32F 95 0% - - 98% 1 mhos 67 - Yes - - -
Date/Time
(MST)
Sf
Temp Chem Water Layer Surface Precipitation
Sfc Pvt Sub Frz Factor Pct Dpth DpthThk IcePct Cond Salin FI Type Intens Accum Rate
01/17/2019 20:46 Ice Warning 28.9F - - 32F 95 0% - - 98% 1 mhos 65 - Yes - - -
01/17/2019 20:37 Ice Warning 28.9F - - 32F 95 0% - - 98% 1 mhos 57 - Yes - - -
01/17/2019 20:31 Ice Warning 28.9F - - 32F 95 0% - - 98% 1 mhos 61 - Yes - - -
01/17/2019 20:27 Ice Warning 28.9F - - 32F 95 0% - - 98% 1 mhos 59 - Yes - - -
01/17/2019 20:17 Ice Warning 29.1F - - 32F 95 0% - - 98% 0 mhos 53 - Yes - - -
01/17/2019 20:16 Ice Warning 28.9F - - 32F 95 0% - - 98% 1 mhos 58 - Yes - - -
01/17/2019 20:07 Ice Warning 28.8F - - 32F 95 0% - - 97% 1 mhos 85 - Yes - - -
01/17/2019 20:01 Ice Warning 28.9F - - 32F 95 1% - - 94% 2 mhos 188 - Yes - - -
01/17/2019 19:57 Ice Warning 28.9F - - 32F 95 1% - - 94% 2 mhos 188 - Yes - - -
01/17/2019 19:47 Ice Warning 28.9F - - 32F 95 1% - - 94% 2 mhos 179 - Yes - - -
01/17/2019 19:46 Ice Warning 28.8F - - 32F 95 1% - - 94% 2 mhos 194 - Yes - - -
01/17/2019 19:37 Ice Warning 28.9F - - 32F 95 1% - - 94% 2 mhos 185 - Yes - - -
01/17/2019 19:31 Ice Warning 29.1F - - 32F 95 1% - - 94% 2 mhos 169 - Yes - - -
01/17/2019 19:27 Ice Warning 28.9F - - 32F 95 1% - - 93% 2 mhos 209 - Yes - - -
01/17/2019 19:17 Ice Warning 29.1F - - 32F 95 1% - - 93% 2 mhos 209 - Yes - - -
Date/Time
(MST)
Sf
Temp Chem Water Layer Surface Precipitation
Sfc Pvt Sub Frz Factor Pct Dpth DpthThk IcePct Cond Salin FI Type Intens Accum Rate
01/17/2019 19:16 Ice Warning 29.1F - - 32F 95 1% - - 93% 2 mhos 205 - Yes - - -
01/17/2019 19:07 Ice Warning 28.9F - - 32F 95 1% - - 96% 1 mhos 135 - Yes - - -
01/17/2019 19:01 Ice Warning 29.1F - - 32F 95 1% - - 93% 2 mhos 217 - Yes - - -
01/17/2019 18:57 Ice Warning 28.9F - - 32F 95 1% - - 92% 2 mhos 229 - Yes - - -
01/17/2019 18:47 Ice Warning 28.9F - - 32F 95 1% - - 92% 2 mhos 232 - Yes - - -
01/17/2019 18:46 Ice Warning 28.9F - - 32F 95 1% - - 93% 2 mhos 226 - Yes - - -
01/17/2019 18:37 Ice Warning 28.8F - - 32F 95 1% - - 93% 2 mhos 216 - Yes - - -
01/17/2019 18:31 Ice Warning 29.1F - - 32F 95 1% - - 92% 2 mhos 225 - Yes - - -
01/17/2019 18:27 Ice Warning 29.1F - - 32F 95 1% - - 92% 2 mhos 232 - Yes - - -
01/17/2019 18:17 Ice Warning 28.9F - - 32F 95 1% - - 92% 2 mhos 242 - Yes - - -
01/17/2019 18:16 Ice Warning 28.9F - - 32F 95 1% - - 92% 2 mhos 234 - Yes - - -
01/17/2019 18:06 Ice Warning 29.1F - - 32F 95 1% - - 93% 2 mhos 214 - Yes - - -
01/17/2019 18:01 Ice Warning 29.1F - - 32F 95 1% - - 92% 2 mhos 241 - Yes - - -
01/17/2019 17:56 Ice Warning 28.9F - - 32F 95 1% - - 92% 2 mhos 249 - Yes - - -
01/17/2019 17:46 Chemically Wet 28.9F - - 31F 95 2% - - 80% 5 mhos 606 - Yes - - -
Date/Time
(MST)
Sf
Temp Chem Water Layer Surface Precipitation
Sfc Pvt Sub Frz Factor Pct Dpth DpthThk IcePct Cond Salin FI Type Intens Accum Rate
01/17/2019 17:46 Chemically Wet 28.9F - - 31F 95 2% - - 80% 5 mhos 606 - Yes - - -
01/17/2019 17:36 Chemically Wet 29.1F - - 31F 95 2% - - 79% 6 mhos 627 - Yes - - -
01/17/2019 17:31 Chemically Wet 28.9F - - 31F 95 2% - - 82% 5 mhos 544 - Yes - - -
01/17/2019 17:26 Chemically Wet 29.1F - - 31F 95 2% - - 81% 5 mhos 567 - Yes - - -
01/17/2019 17:16 Chemically Wet 29.1F - - 31F 95 2% - - 78% 6 mhos 634 - Yes - - -
01/17/2019 17:16 Chemically Wet 28.9F - - 31F 95 2% - - 79% 6 mhos 634 - Yes - - -
01/17/2019 17:06 Ice Warning 29.3F - - 32F 95 2% - - 85% 4 mhos 401 - Yes - - -
01/17/2019 17:01 Chemically Wet 29.5F - - 31F 95 2% - - 83% 4 mhos 443 - Yes - - -
01/17/2019 16:56 Chemically Wet 29.5F - - 31F 95 2% - - 80% 5 mhos 519 - Yes - - -
01/17/2019 16:46 Chemically Wet 29.3F - - 31F 95 4% - - 65% 8 mhos 943 - Yes - - -
01/17/2019 16:46 Chemically Wet 29.3F - - 31F 95 4% - - 65% 9 mhos 965 - Yes - - -
01/17/2019 16:36 Chemically Wet 29.3F - - 31F 95 4% - - 62% 9 mhos 1040 - Yes - - -
01/17/2019 16:31 Chemically Wet 29.1F - - 31F 95 5% - - 59% 10 mhos 1179 - Yes - - -
01/17/2019 16:26 Chemically Wet 28.8F - - 31F 95 5% - - 61% 11 mhos 1258 - Yes - - -
01/17/2019 16:16 Chemically Wet 28.4F - - 31F 95 5% - - 65% 11 mhos 1224 - Yes - - -
Date/Time
(MST)
Sf
Temp Chem Water Layer Surface Precipitation
Sfc Pvt Sub Frz Factor Pct Dpth DpthThk IcePct Cond Salin FI Type Intens Accum Rate
01/17/2019 16:16 Chemically Wet 28.4F - - 31F 95 5% - - 63% 11 mhos 1299 - Yes - - -
01/17/2019 16:06 Chemically Wet 28.6F - - 31F 95 4% - - 67% 10 mhos 1111 - Yes - - -
01/17/2019 16:01 Chemically Wet 28.2F - - 31F 95 3% - - 77% 8 mhos 873 - Yes - - -
01/17/2019 15:56 Chemically Wet 27.9F - - 31F 95 3% - - 79% 8 mhos 886 - Yes - - -
01/17/2019 15:46 Chemically Wet 27.5F - - 31F 95 3% - - 81% 8 mhos 870 - Yes - - -
01/17/2019 15:46 Chemically Wet 27.5F - - 31F 95 3% - - 81% 8 mhos 870 - Yes - - -
01/17/2019 15:36 Chemically Wet 27.3F - - 31F 95 3% - - 81% 8 mhos 880 - Yes - - -
01/17/2019 15:31 Chemically Wet 27.1F - - 31F 95 3% - - 81% 8 mhos 894 - Yes - - -
01/17/2019 15:26 Ice Warning 27.3F - - 31F 95 2% - - 86% 5 mhos 631 - Yes - - -
01/17/2019 15:16 Ice Warning 27.5F - - 32F 95 2% - - 91% 4 mhos 402 - Yes - - -
01/17/2019 15:16 Ice Warning 27.5F - - 32F 95 2% - - 91% 4 mhos 402 - Yes - - -
01/17/2019 15:06 Ice Warning 27.7F - - 32F 95 2% - - 91% 4 mhos 408 - Yes - - -
01/17/2019 15:01 Ice Warning 27.7F - - 32F 95 2% - - 91% 4 mhos 415 - Yes - - -
01/17/2019 14:56 Ice Warning 27.7F - - 32F 95 2% - - 91% 4 mhos 415 - Yes - - -
01/17/2019 14:46 Ice Warning 27.7F - - 31F 95 2% - - 90% 4 mhos 427 - Yes - - -
Date/Time
(MST)
Sf
Temp Chem Water Layer Surface Precipitation
Sfc Pvt Sub Frz Factor Pct Dpth DpthThk IcePct Cond Salin FI Type Intens Accum Rate
01/17/2019 14:46 Ice Warning 27.7F - - 31F 95 2% - - 90% 4 mhos 428 - Yes - - -
01/17/2019 14:36 Ice Warning 27.5F - - 31F 95 2% - - 90% 4 mhos 447 - Yes - - -
01/17/2019 14:31 Ice Warning 27.9F - - 31F 95 2% - - 89% 4 mhos 457 - Yes - - -
01/17/2019 14:25 Ice Warning 27.7F - - 31F 95 2% - - 89% 4 mhos 479 - Yes - - -
01/17/2019 14:16 Ice Warning 27.9F - - 31F 95 2% - - 86% 5 mhos 589 - Yes - - -
01/17/2019 14:15 Ice Warning 27.7F - - 31F 95 2% - - 86% 5 mhos 612 - Yes - - -
01/17/2019 14:05 Chemically Wet 27.9F - - 30F 95 8% - - 50% 18 mhos 2070 - Yes - - -
01/17/2019 14:01 Chemically Wet 27.9F - - 30F 95 8% - - 47% 19 mhos 2192 - Yes - - -
01/17/2019 13:55 Chemically Wet 28.0F - - 30F 95 8% - - 50% 17 mhos 1988 - Yes - - -
01/17/2019 13:46 Chemically Wet 28.2F - - 29F 95 9% - - 39% 20 mhos 2326 - Yes - - -
01/17/2019 13:45 Chemically Wet 28.2F - - 29F 95 9% - - 39% 20 mhos 2339 - Yes - - -
01/17/2019 13:35 Chemically Wet 28.2F - - 29F 95 10% - - 30% 23 mhos 2670 - Yes - - -
01/17/2019 13:31 Chemically Wet 27.9F - - 29F 95 11% - - 30% 24 mhos 2903 - Yes - - -
01/17/2019 13:25 Chemically Wet 27.0F - - 29F 95 10% - - 50% 21 mhos 2503 - Yes - - -
01/17/2019 13:16 Chemically Wet 26.1F - - 30F 95 7% - - 68% 16 mhos 1920 - Yes - - -
Date/Time
(MST)
Sf
Temp Chem Water Layer Surface Precipitation
Sfc Pvt Sub Frz Factor Pct Dpth DpthThk IcePct Cond Salin FI Type Intens Accum Rate
01/17/2019 13:15 Chemically Wet 26.1F - - 30F 95 6% - - 75% 13 mhos 1503 - Yes - - -
01/17/2019 13:05 Ice Warning 25.5F - - 32F 95 1% - - 96% 2 mhos 255 - Yes - - -
01/17/2019 13:01 Ice Warning 25.5F - - 32F 95 1% - - 96% 2 mhos 239 - Yes - - -
01/17/2019 12:55 Ice Warning 25.0F - - 32F 95 1% - - 97% 2 mhos 240 - Yes - - -
01/17/2019 12:46 Ice Warning 24.6F - - 32F 95 1% - - 97% 2 mhos 257 - Yes - - -
01/17/2019 12:45 Ice Warning 24.6F - - 32F 95 1% - - 97% 2 mhos 249 - Yes - - -
01/17/2019 12:35 Ice Warning 24.4F - - 32F 95 1% - - 97% 2 mhos 248 - Yes - - -
01/17/2019 12:31 Ice Warning 24.3F - - 32F 95 1% - - 97% 2 mhos 235 - Yes - - -
01/17/2019 12:25 Ice Warning 23.9F - - 32F 95 1% - - 97% 2 mhos 234 - Yes - - -
01/17/2019 12:16 Ice Warning 23.5F - - 32F 90 1% - - 97% 2 mhos 252 - Yes - - -
01/17/2019 12:15 Ice Warning 23.5F - - 32F 90 1% - - 97% 2 mhos 258 - Yes - - -
01/17/2019 12:05 Ice Warning 23.4F - - 32F 95 1% - - 97% 2 mhos 248 - Yes - - -
01/17/2019 12:01 Ice Warning 23.2F - - 32F 85 1% - - 97% 2 mhos 243 - Yes - - -
01/17/2019 11:55 Ice Warning 22.8F - - 32F 85 1% - - 97% 2 mhos 244 - Yes - - -
01/17/2019 11:46 Ice Warning 22.5F - - 32F 95 1% - - 97% 2 mhos 251 - Yes - - -
Date/Time
(MST)
Sf
Temp Chem Water Layer Surface Precipitation
Sfc Pvt Sub Frz Factor Pct Dpth DpthThk IcePct Cond Salin FI Type Intens Accum Rate
01/17/2019 11:45 Ice Warning 22.5F - - 32F 95 1% - - 97% 2 mhos 244 - Yes - - -
01/17/2019 11:35 Ice Warning 22.3F - - 32F 95 1% - - 97% 2 mhos 259 - Yes - - -
01/17/2019 11:31 Ice Warning 22.1F - - 32F 95 1% - - 97% 2 mhos 270 - Yes - - -
01/17/2019 11:25 Ice Warning 22.1F - - 32F 95 1% - - 97% 2 mhos 273 - Yes - - -
01/17/2019 11:16 Ice Warning 21.9F - - 32F 95 1% - - 98% 2 mhos 224 - Yes - - -
01/17/2019 11:15 Ice Warning 21.9F - - 32F 95 1% - - 97% 2 mhos 285 - Yes - - -
01/17/2019 11:05 Ice Warning 21.9F - - 32F 95 1% - - 97% 2 mhos 280 - Yes - - -
01/17/2019 11:01 Ice Warning 21.7F - - 32F 95 1% - - 97% 2 mhos 275 - Yes - - -
01/17/2019 10:55 Ice Warning 21.9F - - 32F 95 1% - - 98% 1 mhos 166 - Yes - - -
01/17/2019 10:46 Ice Warning 21.7F - - 32F 95 1% - - 97% 2 mhos 266 - Yes - - -
01/17/2019 10:44 Ice Warning 21.9F - - 32F 95 1% - - 97% 2 mhos 277 - Yes - - -
01/17/2019 10:34 Ice Warning 21.7F - - 32F 95 1% - - 97% 2 mhos 267 - Yes - - -
01/17/2019 10:31 Ice Warning 21.7F - - 32F 95 1% - - 97% 2 mhos 275 - Yes - - -
01/17/2019 10:24 Ice Warning 21.6F - - 32F 95 1% - - 97% 2 mhos 287 - Yes - - -
01/17/2019 10:16 Ice Warning 21.4F - - 32F 95 1% - - 97% 2 mhos 301 - Yes - - -
Date/Time
(MST)
Sf
Temp Chem Water Layer Surface Precipitation
Sfc Pvt Sub Frz Factor Pct Dpth DpthThk IcePct Cond Salin FI Type Intens Accum Rate
01/17/2019 10:14 Ice Warning 21.4F - - 32F 95 1% - - 97% 2 mhos 288 - Yes - - -
01/17/2019 10:04 Ice Warning 21.2F - - 32F 95 1% - - 97% 2 mhos 299 - Yes - - -
01/17/2019 10:01 Ice Warning 21.4F - - 32F 95 1% - - 97% 2 mhos 293 - Yes - - -
01/17/2019 09:54 Ice Warning 21.0F - - 32F 95 1% - - 97% 2 mhos 296 - Yes - - -
01/17/2019 09:46 Ice Warning 21.2F - - 32F 95 1% - - 98% 2 mhos 276 - Yes - - -
01/17/2019 09:44 Ice Warning 21.0F - - 32F 90 1% - - 98% 2 mhos 278 - Yes - - -
01/17/2019 09:34 Ice Warning 20.7F - - 32F 95 1% - - 98% 2 mhos 282 - Yes - - -
01/17/2019 09:31 Ice Warning 20.7F - - 32F 85 1% - - 98% 2 mhos 259 - Yes - - -
01/17/2019 09:24 Ice Warning 20.3F - - 32F 90 1% - - 98% 2 mhos 281 - Yes - - -
01/17/2019 09:16 Ice Warning 20.3F - - 32F 95 1% - - 98% 2 mhos 264 - Yes - - -
01/17/2019 09:14 Ice Warning 20.3F - - 32F 95 1% - - 98% 2 mhos 272 - Yes - - -
01/17/2019 09:04 Ice Warning 21.2F - - 32F 50 1% - - 98% 2 mhos 232 - Yes - - -
01/17/2019 09:01 Ice Warning 21.0F - - 32F 45 1% - - 98% 2 mhos 234 - Yes - - -
01/17/2019 08:54 Ice Warning 21.0F - - 32F 45 1% - - 98% 2 mhos 205 - Yes - - -
01/17/2019 08:46 Ice Warning 21.0F - - 32F 45 1% - - 98% 2 mhos 238 - Yes - - -
Date/Time
(MST)
Sf
Temp Chem Water Layer Surface Precipitation
Sfc Pvt Sub Frz Factor Pct Dpth DpthThk IcePct Cond Salin FI Type Intens Accum Rate
01/17/2019 08:44 Ice Warning 21.0F - - 32F 45 1% - - 99% 1 mhos 160 - Yes - - -
01/17/2019 08:34 Ice Warning 20.8F - - 32F 50 1% - - 98% 2 mhos 208 - Yes - - -
01/17/2019 08:31 Ice Warning 20.8F - - 32F 55 1% - - 98% 2 mhos 258 - Yes - - -
01/17/2019 08:24 Ice Warning 20.8F - - 32F 50 1% - - 98% 2 mhos 261 - Yes - - -
01/17/2019 08:16 Ice Warning 21.0F - - 32F 50 1% - - 98% 2 mhos 249 - Yes - - -
01/17/2019 08:14 Ice Warning 21.0F - - 32F 50 1% - - 98% 2 mhos 255 - Yes - - -
01/17/2019 08:04 Ice Warning 20.7F - - 32F 50 1% - - 98% 2 mhos 271 - Yes - - -
01/17/2019 08:01 Ice Warning 20.8F - - 32F 55 1% - - 98% 2 mhos 261 - Yes - - -
01/17/2019 07:54 Ice Warning 20.7F - - 32F 50 1% - - 98% 2 mhos 259 - Yes - - -
01/17/2019 07:46 Ice Warning 20.7F - - 32F 45 1% - - 98% 2 mhos 272 - Yes - - -
01/17/2019 07:44 Ice Warning 20.7F - - 32F 50 1% - - 98% 2 mhos 261 - Yes - - -
01/17/2019 07:34 Ice Warning 20.7F - - 32F 50 1% - - 98% 2 mhos 264 - Yes - - -
01/17/2019 07:31 Ice Warning 20.7F - - 32F 45 1% - - 98% 2 mhos 255 - Yes - - -
01/17/2019 07:24 Ice Warning 20.7F - - 32F 50 1% - - 98% 2 mhos 285 - Yes - - -
01/17/2019 07:16 Ice Warning 20.7F - - 32F 50 1% - - 98% 2 mhos 274 - Yes - - -
Date/Time
(MST)
Sf
Temp Chem Water Layer Surface Precipitation
Sfc Pvt Sub Frz Factor Pct Dpth DpthThk IcePct Cond Salin FI Type Intens Accum Rate
01/17/2019 07:14 Ice Warning 20.7F - - 32F 50 1% - - 98% 2 mhos 279 - Yes - - -
01/17/2019 07:04 Ice Warning 20.5F - - 32F 35 1% - - 98% 2 mhos 265 - Yes - - -
01/17/2019 07:01 Ice Warning 20.5F - - 32F 35 1% - - 98% 2 mhos 273 - Yes - - -
01/17/2019 06:53 Ice Warning 20.5F - - 32F 35 1% - - 98% 2 mhos 270 - Yes - - -
01/17/2019 06:46 Ice Warning 20.3F - - 32F 30 1% - - 98% 2 mhos 269 - Yes - - -
01/17/2019 06:43 Ice Warning 20.3F - - 32F 30 1% - - 98% 2 mhos 257 - Yes - - -
01/17/2019 06:33 Ice Warning 20.3F - - 32F 30 1% - - 98% 2 mhos 272 - Yes - - -
01/17/2019 06:31 Ice Warning 20.3F - - 32F 30 1% - - 98% 2 mhos 232 - Yes - - -
01/17/2019 06:23 Ice Warning 20.3F - - 32F 35 1% - - 98% 2 mhos 284 - Yes - - -
01/17/2019 06:16 Ice Warning 20.3F - - 32F 10 1% - - 98% 2 mhos 275 - Yes - - -
01/17/2019 06:13 Ice Warning 20.3F - - 32F 10 1% - - 98% 2 mhos 265 - Yes - - -
01/17/2019 06:03 Ice Warning 20.3F - - 32F 10 1% - - 98% 2 mhos 286 - Yes - - -
01/17/2019 06:01 Ice Warning 20.3F - - 32F 10 1% - - 98% 2 mhos 285 - Yes - - -
01/17/2019 05:53 Ice Warning 20.1F - - 32F 10 1% - - 98% 2 mhos 281 - Yes - - -
01/17/2019 05:46 Ice Warning 20.3F - - 31F 10 2% - - 96% 3 mhos 425 - Yes - - -
Date/Time
(MST)
Sf
Temp Chem Water Layer Surface Precipitation
Sfc Pvt Sub Frz Factor Pct Dpth DpthThk IcePct Cond Salin FI Type Intens Accum Rate
01/17/2019 05:43 Ice Warning 20.3F - - 31F 10 2% - - 96% 3 mhos 427 - Yes - - -
01/17/2019 05:33 Ice Warning 20.1F - - 31F 10 2% - - 96% 3 mhos 433 - Yes - - -
01/17/2019 05:31 Ice Warning 20.1F - - 31F 10 2% - - 96% 3 mhos 437 - Yes - - -
01/17/2019 05:23 Ice Warning 20.1F - - 31F 10 2% - - 96% 4 mhos 449 - Yes - - -
01/17/2019 05:16 Ice Warning 20.3F - - 31F 5 2% - - 96% 4 mhos 478 - Yes - - -
01/17/2019 05:13 Ice Warning 20.3F - - 31F 5 2% - - 96% 4 mhos 487 - Yes - - -
01/17/2019 05:03 Ice Warning 20.3F - - 31F 5 2% - - 96% 4 mhos 470 - Yes - - -
01/17/2019 05:01 Ice Warning 20.3F - - 31F 5 2% - - 96% 4 mhos 464 - Yes - - -
01/17/2019 04:53 Ice Warning 20.3F - - 31F 5 2% - - 96% 4 mhos 457 - Yes - - -
01/17/2019 04:46 Ice Warning 20.3F - - 31F 5 2% - - 96% 4 mhos 451 - Yes - - -
01/17/2019 04:43 Ice Warning 20.1F - - 31F 5 2% - - 96% 4 mhos 448 - Yes - - -
01/17/2019 04:33 Ice Warning 19.9F - - 31F 5 2% - - 97% 3 mhos 431 - Yes - - -
01/17/2019 04:31 Ice Warning 20.1F - - 32F 5 1% - - 98% 2 mhos 268 - Yes - - -
01/17/2019 04:23 Ice Warning 19.9F - - 32F 5 1% - - 98% 2 mhos 272 - Yes - - -
01/17/2019 04:16 Ice Warning 20.1F - - 32F 5 1% - - 98% 2 mhos 215 - Yes - - -
Date/Time
(MST)
Sf
Temp Chem Water Layer Surface Precipitation
Sfc Pvt Sub Frz Factor Pct Dpth DpthThk IcePct Cond Salin FI Type Intens Accum Rate
01/17/2019 04:13 Ice Warning 20.1F - - 32F 5 1% - - 98% 2 mhos 216 - Yes - - -
01/17/2019 04:03 Ice Warning 20.1F - - 32F 5 1% - - 98% 2 mhos 274 - Yes - - -
01/17/2019 04:01 Ice Warning 20.1F - - 32F 5 1% - - 98% 2 mhos 221 - Yes - - -
01/17/2019 03:53 Ice Warning 20.1F - - 32F 5 1% - - 98% 2 mhos 271 - Yes - - -
01/17/2019 03:46 Ice Warning 20.1F - - 32F 5 1% - - 98% 2 mhos 250 - Yes - - -
01/17/2019 03:43 Ice Warning 19.9F - - 32F 5 1% - - 98% 2 mhos 236 - Yes - - -
01/17/2019 03:33 Ice Warning 19.8F - - 32F 5 1% - - 98% 2 mhos 231 - Yes - - -
01/17/2019 03:31 Ice Warning 19.9F - - 32F 5 1% - - 98% 2 mhos 227 - Yes - - -
01/17/2019 03:23 Ice Warning 19.8F - - 32F 5 1% - - 98% 2 mhos 228 - Yes - - -
01/17/2019 03:16 Ice Warning 19.9F - - 32F 5 1% - - 98% 2 mhos 217 - Yes - - -
01/17/2019 03:13 Ice Warning 19.9F - - 32F 5 1% - - 98% 2 mhos 222 - Yes - - -
01/17/2019 03:02 Ice Warning 19.6F - - 32F 5 1% - - 98% 2 mhos 228 - Yes - - -
01/17/2019 03:01 Ice Warning 19.9F - - 32F 5 1% - - 98% 2 mhos 222 - Yes - - -
Change End Date:

Copyright © 1998-2015 Vaisala, Inc.
All Rights Reserved
Send comments about the data to:
SCAN Web ® is a registered trademark of Vaisala, Inc.
SCAN Web Version 6.0